createdAt,value
2019-05-21T00:00:39.089Z,13.24
2019-05-21T00:03:06.516Z,13.14
2019-05-21T00:05:33.943Z,13.56
2019-05-21T00:08:01.370Z,13.58
2019-05-21T00:10:28.757Z,13.29
2019-05-21T00:12:56.346Z,13.47
2019-05-21T00:15:23.762Z,13.39
2019-05-21T00:17:51.184Z,13.31
2019-05-21T00:20:19.398Z,13.12
2019-05-21T00:22:46.875Z,12.91
2019-05-21T00:25:17.134Z,12.81
2019-05-21T00:27:43.698Z,12.65
2019-05-21T00:30:47.678Z,12.42
2019-05-21T00:33:51.592Z,12.27
2019-05-21T00:37:00.614Z,12.07
2019-05-21T00:40:04.718Z,11.84
2019-05-21T00:42:35.663Z,12.08
2019-05-21T00:45:06.900Z,12.23
2019-05-21T00:47:34.796Z,12.30
2019-05-21T00:50:02.551Z,12.29
2019-05-21T00:52:30.063Z,12.19
2019-05-21T00:54:57.539Z,12.39
2019-05-21T00:57:24.942Z,12.36
2019-05-21T00:59:52.373Z,12.20
2019-05-21T01:02:19.804Z,12.07
2019-05-21T01:04:59.482Z,11.93
2019-05-21T01:07:16.722Z,11.72
2019-05-21T01:09:44.144Z,11.93
2019-05-21T01:12:11.515Z,11.88
2019-05-21T01:14:38.929Z,11.88
2019-05-21T01:17:06.377Z,12.07
2019-05-21T01:19:33.751Z,12.27
2019-05-21T01:22:01.175Z,12.23
2019-05-21T01:24:28.625Z,12.25
2019-05-21T01:26:56.039Z,12.43
2019-05-21T01:29:23.519Z,12.10
2019-05-21T01:31:50.955Z,12.05
2019-05-21T01:34:18.564Z,12.01
2019-05-21T01:36:46.062Z,11.87
2019-05-21T01:39:13.553Z,11.68
2019-05-21T01:41:40.972Z,11.52
2019-05-21T01:44:08.452Z,11.52
2019-05-21T01:46:35.933Z,11.58
2019-05-21T01:49:03.622Z,11.80
2019-05-21T01:51:31.206Z,11.62
2019-05-21T01:53:58.705Z,11.56
2019-05-21T01:56:26.093Z,11.42
2019-05-21T01:58:53.540Z,11.55
2019-05-21T02:01:20.979Z,11.66
2019-05-21T02:03:48.393Z,11.47
2019-05-21T02:06:15.828Z,12.56
2019-05-21T02:08:43.314Z,12.73
2019-05-21T02:11:10.737Z,12.59
2019-05-21T02:13:38.123Z,12.29
2019-05-21T02:16:05.583Z,12.66
2019-05-21T02:18:33.051Z,12.51
2019-05-21T02:21:00.411Z,12.30
2019-05-21T02:23:27.864Z,11.99
2019-05-21T02:25:55.351Z,12.05
2019-05-21T02:28:22.895Z,11.69
2019-05-21T02:30:50.274Z,11.15
2019-05-21T02:33:17.676Z,10.99
2019-05-21T02:35:54.305Z,10.84
2019-05-21T02:38:14.545Z,10.96
2019-05-21T02:40:41.996Z,11.02
2019-05-21T02:43:09.896Z,10.77
2019-05-21T02:45:37.348Z,10.63
2019-05-21T02:48:05.366Z,10.73
2019-05-21T02:50:32.780Z,11.00
2019-05-21T02:53:00.201Z,11.15
2019-05-21T02:55:27.610Z,11.20
2019-05-21T02:57:55.063Z,11.25
2019-05-21T03:00:31.808Z,11.52
2019-05-21T03:02:59.487Z,11.79
2019-05-21T03:05:26.959Z,11.80
2019-05-21T03:07:54.347Z,11.78
2019-05-21T03:10:21.842Z,11.56
2019-05-21T03:12:50.092Z,11.51
2019-05-21T03:15:17.568Z,11.56
2019-05-21T03:17:45.149Z,11.67
2019-05-21T03:20:13.070Z,11.74
2019-05-21T03:22:40.459Z,11.64
2019-05-21T03:25:08.213Z,11.53
2019-05-21T03:27:35.641Z,11.56
2019-05-21T03:30:03.572Z,11.70
2019-05-21T03:32:30.965Z,11.57
2019-05-21T03:34:58.421Z,11.42
2019-05-21T03:37:25.859Z,11.31
2019-05-21T03:39:53.341Z,11.43
2019-05-21T03:42:20.839Z,11.60
2019-05-21T03:44:59.116Z,11.44
2019-05-21T03:47:17.638Z,11.46
2019-05-21T03:49:45.364Z,11.66
2019-05-21T03:52:12.816Z,11.93
2019-05-21T03:54:40.253Z,11.98
2019-05-21T03:57:07.701Z,12.19
2019-05-21T03:59:35.081Z,12.35
2019-05-21T04:02:02.614Z,12.36
2019-05-21T04:04:30.086Z,12.42
2019-05-21T04:06:57.491Z,12.46
2019-05-21T04:09:25.064Z,12.45
2019-05-21T04:11:53.383Z,12.46
2019-05-21T04:14:33.048Z,12.68
2019-05-21T04:17:20.239Z,12.84
2019-05-21T04:19:48.189Z,13.12
2019-05-21T04:22:16.229Z,13.30
2019-05-21T04:24:43.794Z,13.18
2019-05-21T04:27:11.450Z,13.19
2019-05-21T04:29:38.880Z,13.50
2019-05-21T04:32:06.399Z,13.64
2019-05-21T04:34:33.870Z,13.93
2019-05-21T04:37:10.920Z,14.28
2019-05-21T04:39:30.674Z,14.61
2019-05-21T04:41:58.295Z,14.82
2019-05-21T04:44:25.649Z,14.92
2019-05-21T04:46:53.102Z,15.09
2019-05-21T04:49:20.528Z,15.44
2019-05-21T04:51:48.011Z,15.62
2019-05-21T04:54:15.462Z,16.15
2019-05-21T04:56:43.001Z,16.49
2019-05-21T04:59:10.432Z,16.29
2019-05-21T05:01:37.818Z,16.84
2019-05-21T05:04:05.390Z,17.08
2019-05-21T05:06:32.858Z,17.12
2019-05-21T05:09:00.355Z,16.96
2019-05-21T05:11:27.743Z,17.25
2019-05-21T05:13:55.204Z,17.30
2019-05-21T05:16:22.669Z,17.70
2019-05-21T05:18:50.058Z,18.15
2019-05-21T05:21:17.502Z,18.23
2019-05-21T05:23:44.926Z,18.58
2019-05-21T05:26:12.510Z,18.25
2019-05-21T05:28:39.964Z,18.84
2019-05-21T05:31:07.399Z,18.22
2019-05-21T05:33:34.880Z,17.90
2019-05-21T05:36:02.352Z,17.88
2019-05-21T05:38:29.762Z,17.64
2019-05-21T05:40:57.223Z,17.89
2019-05-21T05:43:24.820Z,18.22
2019-05-21T05:45:52.296Z,18.69
2019-05-21T05:48:20.946Z,19.28
2019-05-21T05:50:50.392Z,18.90
2019-05-21T05:53:17.824Z,18.39
2019-05-21T05:55:45.339Z,18.34
2019-05-21T05:58:12.786Z,17.98
2019-05-21T06:00:40.217Z,17.98
2019-05-21T06:03:07.665Z,18.09
2019-05-21T06:05:35.196Z,18.02
2019-05-21T06:08:02.672Z,18.12
2019-05-21T06:10:30.051Z,18.29
2019-05-21T06:12:57.506Z,18.31
2019-05-21T06:15:24.948Z,18.54
2019-05-21T06:17:52.322Z,18.46
2019-05-21T06:20:20.114Z,18.68
2019-05-21T06:22:47.554Z,18.78
2019-05-21T06:25:17.001Z,18.68
2019-05-21T06:27:44.434Z,18.63
2019-05-21T06:30:12.367Z,18.82
2019-05-21T06:32:39.820Z,18.99
2019-05-21T06:35:07.394Z,19.69
2019-05-21T06:37:34.794Z,19.74
2019-05-21T06:40:02.633Z,19.70
2019-05-21T06:42:30.103Z,19.96
2019-05-21T06:44:57.615Z,20.00
2019-05-21T06:47:25.077Z,20.02
2019-05-21T06:49:52.526Z,19.96
2019-05-21T06:52:20.661Z,19.91
2019-05-21T06:54:48.157Z,19.79
2019-05-21T06:57:15.675Z,19.80
2019-05-21T06:59:43.061Z,19.95
2019-05-21T07:02:10.641Z,20.29
2019-05-21T07:04:38.156Z,19.99
2019-05-21T07:07:05.655Z,20.40
2019-05-21T07:09:33.126Z,20.00
2019-05-21T07:12:00.600Z,19.84
2019-05-21T07:14:27.988Z,19.48
2019-05-21T07:16:55.404Z,19.71
2019-05-21T07:19:22.894Z,19.82
2019-05-21T07:21:50.473Z,19.64
2019-05-21T07:24:17.947Z,19.72
2019-05-21T07:26:45.744Z,19.95
2019-05-21T07:29:13.279Z,20.47
2019-05-21T07:31:40.699Z,20.68
2019-05-21T07:34:08.170Z,20.56
2019-05-21T07:36:35.638Z,21.04
2019-05-21T07:39:05.292Z,21.52
2019-05-21T07:41:32.631Z,21.63
2019-05-21T07:44:00.137Z,21.50
2019-05-21T07:46:27.746Z,21.38
2019-05-21T07:48:55.206Z,21.56
2019-05-21T07:51:22.777Z,21.32
2019-05-21T07:53:50.223Z,21.86
2019-05-21T07:56:17.588Z,22.01
2019-05-21T07:58:45.020Z,22.12
2019-05-21T08:01:12.463Z,22.50
2019-05-21T08:03:39.876Z,22.84
2019-05-21T08:06:07.336Z,22.42
2019-05-21T08:08:34.771Z,22.50
2019-05-21T08:11:02.139Z,22.73
2019-05-21T08:13:29.568Z,23.02
2019-05-21T08:15:57.001Z,23.21
2019-05-21T08:18:24.429Z,23.23
2019-05-21T08:20:51.879Z,23.50
2019-05-21T08:23:19.349Z,23.55
2019-05-21T08:25:47.670Z,23.72
2019-05-21T08:28:15.107Z,24.07
2019-05-21T08:30:42.543Z,24.35
2019-05-21T08:33:10.007Z,24.27
2019-05-21T08:35:37.477Z,23.58
2019-05-21T08:38:06.703Z,22.95
2019-05-21T08:40:34.437Z,22.36
2019-05-21T08:43:01.913Z,22.33
2019-05-21T08:45:29.383Z,22.30
2019-05-21T08:47:57.100Z,22.15
2019-05-21T08:50:24.566Z,22.50
2019-05-21T08:52:52.128Z,22.38
2019-05-21T08:55:19.636Z,21.96
2019-05-21T08:58:05.062Z,21.60
2019-05-21T09:00:20.487Z,21.49
2019-05-21T09:02:47.974Z,21.44
2019-05-21T09:05:15.659Z,21.43
2019-05-21T09:07:43.384Z,21.50
2019-05-21T09:10:12.737Z,21.63
2019-05-21T09:12:40.161Z,22.04
2019-05-21T09:15:09.486Z,22.22
2019-05-21T09:17:36.945Z,22.00
2019-05-21T09:20:05.343Z,21.75
2019-05-21T09:22:32.910Z,21.83
2019-05-21T09:25:00.418Z,21.68
2019-05-21T09:27:27.804Z,21.38
2019-05-21T09:29:55.241Z,21.55
2019-05-21T09:32:22.724Z,21.82
2019-05-21T09:34:50.132Z,21.64
2019-05-21T09:37:19.998Z,22.23
2019-05-21T09:39:47.160Z,22.63
2019-05-21T09:42:14.567Z,22.70
2019-05-21T09:44:42.304Z,23.01
2019-05-21T09:47:09.887Z,23.44
2019-05-21T09:49:37.554Z,23.51
2019-05-21T09:52:05.078Z,23.06
2019-05-21T09:54:32.535Z,22.91
2019-05-21T09:57:00.778Z,22.70
2019-05-21T09:59:42.689Z,22.66
2019-05-21T10:02:13.832Z,22.88
2019-05-21T10:04:41.292Z,22.93
2019-05-21T10:07:11.137Z,22.97
2019-05-21T10:09:38.595Z,23.05
2019-05-21T10:12:06.595Z,23.19
2019-05-21T10:14:34.554Z,23.78
2019-05-21T10:17:02.033Z,24.18
2019-05-21T10:19:29.497Z,23.91
2019-05-21T10:21:57.241Z,23.98
2019-05-21T10:24:24.743Z,23.93
2019-05-21T10:26:52.244Z,24.32
2019-05-21T10:29:19.714Z,24.63
2019-05-21T10:31:47.204Z,24.87
2019-05-21T10:34:14.733Z,24.82
2019-05-21T10:36:42.191Z,24.70
2019-05-21T10:39:10.175Z,24.44
2019-05-21T10:41:37.715Z,24.61
2019-05-21T10:44:05.302Z,24.81
2019-05-21T10:46:32.835Z,25.18
2019-05-21T10:49:00.338Z,25.68
2019-05-21T10:51:28.658Z,26.15
2019-05-21T10:53:56.350Z,26.11
2019-05-21T10:56:23.744Z,26.11
2019-05-21T10:58:51.300Z,25.90
2019-05-21T11:01:28.433Z,25.80
2019-05-21T11:04:13.884Z,25.66
2019-05-21T11:06:42.442Z,25.64
2019-05-21T11:09:15.855Z,25.84
2019-05-21T11:11:43.445Z,26.13
2019-05-21T11:14:10.973Z,26.13
2019-05-21T11:16:38.579Z,26.15
2019-05-21T11:19:06.138Z,25.95
2019-05-21T11:21:33.593Z,26.11
2019-05-21T11:24:01.140Z,26.04
2019-05-21T11:26:28.654Z,25.34
2019-05-21T11:28:56.085Z,25.34
2019-05-21T11:31:23.619Z,25.28
2019-05-21T11:33:51.096Z,25.00
2019-05-21T11:36:18.571Z,25.19
2019-05-21T11:38:46.013Z,24.81
2019-05-21T11:41:13.555Z,24.75
2019-05-21T11:43:40.995Z,24.55
2019-05-21T11:46:08.550Z,24.27
2019-05-21T11:48:36.003Z,24.45
2019-05-21T11:51:03.537Z,23.95
2019-05-21T11:53:32.138Z,23.10
2019-05-21T11:55:59.866Z,22.39
2019-05-21T11:58:27.347Z,22.22
2019-05-21T12:03:22.177Z,21.61
2019-05-21T12:05:49.737Z,21.44
2019-05-21T12:08:17.132Z,21.04
2019-05-21T12:10:44.638Z,20.57
2019-05-21T12:13:12.088Z,20.06
2019-05-21T12:15:39.578Z,20.05
2019-05-21T12:18:07.087Z,19.74
2019-05-21T12:20:37.190Z,19.54
2019-05-21T12:23:03.929Z,19.48
2019-05-21T12:25:31.416Z,19.76
2019-05-21T12:27:58.820Z,19.89
2019-05-21T12:30:26.334Z,19.96
2019-05-21T12:32:53.804Z,20.11
2019-05-21T12:35:21.319Z,20.27
2019-05-21T12:37:48.759Z,20.13
2019-05-21T12:40:16.969Z,19.90
2019-05-21T12:42:44.403Z,19.88
2019-05-21T12:45:12.447Z,19.85
2019-05-21T12:47:39.901Z,20.11
2019-05-21T12:50:07.844Z,20.35
2019-05-21T12:52:35.410Z,20.37
2019-05-21T12:55:03.475Z,20.43
2019-05-21T12:57:30.926Z,20.53
2019-05-21T12:59:58.447Z,20.77
2019-05-21T13:02:25.822Z,21.15
2019-05-21T13:04:53.286Z,21.35
2019-05-21T13:07:20.844Z,21.57
2019-05-21T13:09:48.276Z,21.52
2019-05-21T13:12:15.761Z,21.72
2019-05-21T13:14:43.232Z,22.08
2019-05-21T13:17:10.856Z,22.28
2019-05-21T13:19:38.471Z,22.28
2019-05-21T13:22:05.910Z,22.46
2019-05-21T13:24:33.440Z,22.43
2019-05-21T13:27:00.867Z,22.38
2019-05-21T13:29:28.281Z,22.24
2019-05-21T13:31:55.717Z,21.86
2019-05-21T13:34:23.169Z,21.30
2019-05-21T13:36:50.604Z,20.99
2019-05-21T13:39:18.148Z,20.67
2019-05-21T13:41:45.610Z,20.48
2019-05-21T13:44:13.029Z,20.52
2019-05-21T13:46:40.482Z,20.48
2019-05-21T13:49:08.034Z,20.27
2019-05-21T13:51:36.032Z,20.23
2019-05-21T13:54:03.875Z,20.28
2019-05-21T13:56:31.520Z,20.46
2019-05-21T13:58:58.955Z,20.48
2019-05-21T14:01:39.924Z,20.27
2019-05-21T14:03:56.120Z,20.12
2019-05-21T14:06:23.810Z,20.25
2019-05-21T14:08:51.219Z,20.39
2019-05-21T14:11:20.169Z,20.55
2019-05-21T14:13:47.704Z,20.57
2019-05-21T14:16:15.244Z,20.72
2019-05-21T14:18:42.692Z,21.02
2019-05-21T14:21:10.139Z,21.14
2019-05-21T14:23:37.676Z,21.46
2019-05-21T14:26:05.396Z,21.64
2019-05-21T14:28:34.613Z,22.00
2019-05-21T14:31:02.483Z,22.24
2019-05-21T14:33:29.921Z,22.63
2019-05-21T14:35:57.451Z,22.50
2019-05-21T14:38:24.930Z,22.53
2019-05-21T14:40:52.403Z,22.55
2019-05-21T14:43:19.782Z,22.30
2019-05-21T14:45:47.236Z,22.18
2019-05-21T14:48:14.702Z,21.95
2019-05-21T14:50:42.234Z,22.46
2019-05-21T14:53:09.749Z,22.28
2019-05-21T14:55:37.292Z,22.29
2019-05-21T14:58:04.976Z,21.88
2019-05-21T15:00:35.584Z,21.58
2019-05-21T15:03:03.106Z,20.97
2019-05-21T15:05:30.769Z,20.18
2019-05-21T15:07:58.195Z,20.26
2019-05-21T15:10:25.661Z,20.27
2019-05-21T15:12:53.178Z,20.08
2019-05-21T15:15:20.742Z,20.10
2019-05-21T15:17:49.229Z,20.16
2019-05-21T15:20:25.177Z,20.01
2019-05-21T15:22:52.710Z,20.09
2019-05-21T15:25:20.180Z,20.09
2019-05-21T15:27:47.732Z,19.93
2019-05-21T15:30:15.320Z,19.93
2019-05-21T15:32:42.687Z,20.01
2019-05-21T15:35:10.397Z,20.03
2019-05-21T15:37:37.909Z,19.95
2019-05-21T15:40:05.630Z,20.01
2019-05-21T15:42:33.105Z,20.18
2019-05-21T15:45:00.553Z,20.27
2019-05-21T15:47:28.109Z,20.31
2019-05-21T15:49:55.582Z,20.52
2019-05-21T15:52:23.047Z,20.65
2019-05-21T15:54:50.693Z,20.62
2019-05-21T15:57:18.197Z,20.93
2019-05-21T15:59:45.818Z,21.01
2019-05-21T16:02:13.421Z,20.99
2019-05-21T16:04:40.919Z,21.16
2019-05-21T16:07:08.413Z,21.19
2019-05-21T16:09:36.087Z,21.08
2019-05-21T16:12:03.680Z,20.76
2019-05-21T16:14:31.109Z,20.69
2019-05-21T16:16:58.659Z,20.46
2019-05-21T16:19:26.072Z,20.44
2019-05-21T16:21:53.601Z,20.59
2019-05-21T16:24:21.060Z,20.83
2019-05-21T16:26:48.567Z,20.70
2019-05-21T16:29:16.178Z,20.51
2019-05-21T16:31:43.676Z,20.56
2019-05-21T16:34:11.161Z,20.73
2019-05-21T16:36:38.646Z,20.95
2019-05-21T16:39:07.421Z,20.95
2019-05-21T16:41:44.290Z,20.89
2019-05-21T16:44:04.609Z,20.83
2019-05-21T16:46:32.130Z,20.81
2019-05-21T16:48:59.525Z,20.77
2019-05-21T16:51:26.973Z,20.65
2019-05-21T16:53:56.044Z,20.70
2019-05-21T16:56:24.074Z,20.72
2019-05-21T16:58:51.589Z,20.60
2019-05-21T17:01:19.059Z,20.65
2019-05-21T17:03:59.138Z,20.58
2019-05-21T17:06:16.035Z,20.59
2019-05-21T17:08:43.600Z,20.46
2019-05-21T17:11:11.077Z,20.41
2019-05-21T17:13:38.535Z,20.33
2019-05-21T17:16:05.952Z,20.22
2019-05-21T17:18:33.439Z,20.15
2019-05-21T17:21:00.880Z,20.10
2019-05-21T17:23:28.329Z,20.26
2019-05-21T17:25:55.751Z,20.17
2019-05-21T17:28:23.277Z,20.21
2019-05-21T17:30:50.811Z,20.23
2019-05-21T17:33:18.239Z,20.34
2019-05-21T17:35:45.818Z,20.37
2019-05-21T17:38:13.292Z,20.29
2019-05-21T17:40:40.879Z,20.07
2019-05-21T17:43:08.371Z,20.12
2019-05-21T17:45:35.942Z,20.12
2019-05-21T17:48:03.548Z,20.12
2019-05-21T17:50:31.068Z,19.98
2019-05-21T17:52:58.522Z,20.03
2019-05-21T17:55:28.077Z,20.02
2019-05-21T17:57:55.913Z,19.88
2019-05-21T18:00:42.149Z,19.84
2019-05-21T18:03:09.922Z,19.95
2019-05-21T18:05:37.995Z,19.86
2019-05-21T18:08:05.549Z,19.88
2019-05-21T18:10:33.023Z,19.65
2019-05-21T18:13:00.796Z,19.66
2019-05-21T18:15:28.187Z,19.47
2019-05-21T18:17:56.528Z,19.57
2019-05-21T18:20:24.539Z,19.54
2019-05-21T18:22:51.957Z,19.36
2019-05-21T18:25:19.673Z,19.32
2019-05-21T18:27:47.715Z,19.31
2019-05-21T18:30:15.396Z,19.29
2019-05-21T18:32:43.435Z,19.06
2019-05-21T18:35:12.444Z,19.08
2019-05-21T18:37:40.145Z,19.06
2019-05-21T18:40:08.522Z,18.92
2019-05-21T18:42:36.029Z,18.68
2019-05-21T18:45:04.331Z,18.47
2019-05-21T18:47:31.771Z,18.39
2019-05-21T18:49:59.205Z,18.40
2019-05-21T18:52:26.657Z,18.31
2019-05-21T18:54:54.157Z,18.21
2019-05-21T18:57:21.913Z,18.50
2019-05-21T18:59:49.506Z,18.42
2019-05-21T19:02:17.150Z,18.64
2019-05-21T19:04:44.566Z,18.65
2019-05-21T19:07:12.561Z,18.56
2019-05-21T19:09:40.035Z,18.42
2019-05-21T19:12:07.400Z,18.55
2019-05-21T19:14:35.048Z,18.53
2019-05-21T19:17:02.545Z,18.55
2019-05-21T19:19:29.971Z,18.48
2019-05-21T19:21:57.446Z,18.40
2019-05-21T19:24:24.924Z,18.20
2019-05-21T19:26:52.472Z,18.17
2019-05-21T19:29:19.985Z,18.21
2019-05-21T19:31:49.386Z,18.25
2019-05-21T19:34:16.979Z,18.07
2019-05-21T19:36:44.463Z,18.18
2019-05-21T19:39:11.985Z,18.14
2019-05-21T19:41:39.401Z,18.06
2019-05-21T19:44:06.817Z,18.23
2019-05-21T19:46:34.386Z,18.27
2019-05-21T19:49:01.859Z,18.35
2019-05-21T19:51:29.288Z,18.27
2019-05-21T19:53:56.845Z,18.40
2019-05-21T19:56:25.064Z,18.20
2019-05-21T19:58:52.560Z,18.12
2019-05-21T20:01:20.341Z,18.23
2019-05-21T20:03:48.507Z,18.15
2019-05-21T20:06:17.924Z,17.87
2019-05-21T20:08:45.423Z,17.61
2019-05-21T20:11:14.777Z,17.70
2019-05-21T20:13:42.387Z,17.83
2019-05-21T20:16:10.915Z,17.58
2019-05-21T20:18:39.974Z,17.60
2019-05-21T20:21:08.842Z,17.56
2019-05-21T20:23:36.855Z,17.83
2019-05-21T20:26:10.051Z,17.90
2019-05-21T20:28:38.268Z,17.84
2019-05-21T20:31:06.269Z,17.89
2019-05-21T20:33:35.568Z,17.74
2019-05-21T20:36:03.659Z,17.80
2019-05-21T20:38:31.174Z,17.90
2019-05-21T20:40:58.957Z,17.95
2019-05-21T20:43:26.489Z,17.70
2019-05-21T20:45:54.323Z,16.91
2019-05-21T20:48:25.616Z,16.46
2019-05-21T20:50:53.315Z,16.19
2019-05-21T20:53:21.272Z,16.05
2019-05-21T20:55:49.170Z,16.09
2019-05-21T20:58:17.055Z,16.06
2019-05-21T21:00:49.189Z,15.92
2019-05-21T21:03:17.128Z,15.84
2019-05-21T21:05:44.817Z,15.74
2019-05-21T21:08:13.237Z,15.75
2019-05-21T21:10:40.831Z,15.79
2019-05-21T21:13:10.943Z,15.79
2019-05-21T21:15:38.411Z,15.77
2019-05-21T21:18:05.977Z,15.67
2019-05-21T21:20:33.603Z,15.74
2019-05-21T21:23:01.179Z,15.77
2019-05-21T21:25:29.473Z,15.79
2019-05-21T21:27:57.044Z,15.72
2019-05-21T21:30:24.900Z,15.83
2019-05-21T21:32:52.974Z,16.09
2019-05-21T21:35:20.519Z,15.82
2019-05-21T21:37:48.520Z,16.06
2019-05-21T21:40:18.037Z,16.08
2019-05-21T21:42:45.571Z,15.87
2019-05-21T21:45:13.763Z,15.57
2019-05-21T21:47:41.411Z,15.58
2019-05-21T21:50:10.073Z,15.50
2019-05-21T21:52:37.560Z,15.49
2019-05-21T21:55:06.478Z,15.33
2019-05-21T21:57:34.370Z,15.36
2019-05-21T22:00:07.714Z,15.28
2019-05-21T22:02:35.624Z,14.97
2019-05-21T22:05:06.027Z,15.03
2019-05-21T22:07:34.097Z,15.00
2019-05-21T22:10:01.667Z,15.06
2019-05-21T22:12:29.149Z,15.05
2019-05-21T22:14:59.577Z,15.10
2019-05-21T22:17:27.390Z,14.92
2019-05-21T22:19:54.855Z,15.01
2019-05-21T22:22:22.943Z,15.11
2019-05-21T22:24:50.448Z,15.17
2019-05-21T22:27:17.988Z,15.19
2019-05-21T22:29:45.443Z,14.95
2019-05-21T22:32:16.566Z,15.26
2019-05-21T22:34:42.530Z,15.11
2019-05-21T22:37:12.420Z,15.21
2019-05-21T22:39:42.080Z,15.38
2019-05-21T22:42:10.466Z,15.33
2019-05-21T22:44:38.385Z,15.29
2019-05-21T22:47:07.050Z,15.27
2019-05-21T22:49:35.095Z,15.15
2019-05-21T22:52:02.740Z,15.10
2019-05-21T22:54:30.231Z,15.28
2019-05-21T22:56:57.898Z,15.26
2019-05-21T22:59:25.550Z,15.13
2019-05-21T23:01:55.821Z,15.08
2019-05-21T23:04:23.291Z,15.04
2019-05-21T23:06:50.850Z,15.03
2019-05-21T23:09:18.371Z,15.20
2019-05-21T23:11:45.846Z,15.22
2019-05-21T23:14:13.344Z,15.17
2019-05-21T23:16:41.315Z,15.10
2019-05-21T23:19:10.883Z,15.14
2019-05-21T23:21:39.193Z,15.04
2019-05-21T23:24:12.483Z,15.08
2019-05-21T23:26:40.332Z,15.18
2019-05-21T23:29:08.138Z,15.22
2019-05-21T23:31:35.654Z,15.11
2019-05-21T23:34:04.852Z,14.13
2019-05-21T23:36:32.489Z,13.54
2019-05-21T23:38:59.943Z,13.46
2019-05-21T23:41:28.180Z,13.46
2019-05-21T23:43:55.655Z,13.55
2019-05-21T23:46:23.323Z,13.55
2019-05-21T23:48:51.297Z,13.75
2019-05-21T23:51:18.831Z,13.71
2019-05-21T23:53:46.340Z,13.88
2019-05-21T23:56:14.998Z,14.03
2019-05-21T23:58:42.951Z,14.08
